sensor_id;sensor_type;location;lat;lon;timestamp;pressure;altitude;pressure_sealevel;temperature
23992;BMP280;12205;50.600;4.608;2023-03-15T00:00:23;99423.94;;;3.16
23992;BMP280;12205;50.600;4.608;2023-03-15T00:02:50;99422.22;;;3.20
23992;BMP280;12205;50.600;4.608;2023-03-15T00:05:17;99425.47;;;3.17
23992;BMP280;12205;50.600;4.608;2023-03-15T00:07:44;99434.50;;;3.16
23992;BMP280;12205;50.600;4.608;2023-03-15T00:10:11;99435.13;;;3.13
23992;BMP280;12205;50.600;4.608;2023-03-15T00:12:38;99437.31;;;3.11
23992;BMP280;12205;50.600;4.608;2023-03-15T00:15:12;99455.47;;;3.13
23992;BMP280;12205;50.600;4.608;2023-03-15T00:17:39;99459.69;;;3.14
23992;BMP280;12205;50.600;4.608;2023-03-15T00:20:07;99455.47;;;3.13
23992;BMP280;12205;50.600;4.608;2023-03-15T00:22:35;99467.72;;;3.17
23992;BMP280;12205;50.600;4.608;2023-03-15T00:25:02;99472.56;;;3.15
23992;BMP280;12205;50.600;4.608;2023-03-15T00:27:29;99484.34;;;3.18
23992;BMP280;12205;50.600;4.608;2023-03-15T00:29:56;99484.78;;;3.20
23992;BMP280;12205;50.600;4.608;2023-03-15T00:32:25;99469.44;;;3.22
23992;BMP280;12205;50.600;4.608;2023-03-15T00:34:52;99492.22;;;3.26
23992;BMP280;12205;50.600;4.608;2023-03-15T00:37:20;99499.94;;;3.32
23992;BMP280;12205;50.600;4.608;2023-03-15T00:39:50;99492.75;;;3.41
23992;BMP280;12205;50.600;4.608;2023-03-15T00:42:20;99491.34;;;3.43
23992;BMP280;12205;50.600;4.608;2023-03-15T00:44:52;99485.56;;;3.50
23992;BMP280;12205;50.600;4.608;2023-03-15T00:47:20;99483.41;;;3.52
23992;BMP280;12205;50.600;4.608;2023-03-15T00:49:48;99489.56;;;3.56
23992;BMP280;12205;50.600;4.608;2023-03-15T00:52:16;99489.09;;;3.54
23992;BMP280;12205;50.600;4.608;2023-03-15T00:54:50;99488.91;;;3.59
23992;BMP280;12205;50.600;4.608;2023-03-15T00:57:17;99481.91;;;3.63
23992;BMP280;12205;50.600;4.608;2023-03-15T00:59:45;99474.22;;;3.71
23992;BMP280;12205;50.600;4.608;2023-03-15T01:02:12;99474.81;;;3.76
23992;BMP280;12205;50.600;4.608;2023-03-15T01:04:39;99480.66;;;3.82
23992;BMP280;12205;50.600;4.608;2023-03-15T01:07:08;99471.63;;;3.83
23992;BMP280;12205;50.600;4.608;2023-03-15T01:09:36;99474.09;;;3.88
23992;BMP280;12205;50.600;4.608;2023-03-15T01:12:04;99468.91;;;3.92
23992;BMP280;12205;50.600;4.608;2023-03-15T01:14:31;99482.13;;;3.92
23992;BMP280;12205;50.600;4.608;2023-03-15T01:17:00;99499.44;;;3.89
23992;BMP280;12205;50.600;4.608;2023-03-15T01:19:27;99499.88;;;3.91
23992;BMP280;12205;50.600;4.608;2023-03-15T01:21:54;99512.25;;;4.00
23992;BMP280;12205;50.600;4.608;2023-03-15T01:24:22;99502.38;;;4.09
23992;BMP280;12205;50.600;4.608;2023-03-15T01:26:49;99505.03;;;4.09
23992;BMP280;12205;50.600;4.608;2023-03-15T01:29:16;99534.56;;;4.11
23992;BMP280;12205;50.600;4.608;2023-03-15T01:31:43;99555.53;;;4.16
23992;BMP280;12205;50.600;4.608;2023-03-15T01:34:10;99570.91;;;4.14
23992;BMP280;12205;50.600;4.608;2023-03-15T01:36:37;99557.53;;;4.19
23992;BMP280;12205;50.600;4.608;2023-03-15T01:39:04;99567.78;;;4.21
23992;BMP280;12205;50.600;4.608;2023-03-15T01:41:41;99577.59;;;4.20
23992;BMP280;12205;50.600;4.608;2023-03-15T01:44:11;99571.22;;;4.21
23992;BMP280;12205;50.600;4.608;2023-03-15T01:46:39;99582.59;;;4.34
23992;BMP280;12205;50.600;4.608;2023-03-15T01:49:17;99584.47;;;4.33
23992;BMP280;12205;50.600;4.608;2023-03-15T01:51:50;99571.69;;;4.36
23992;BMP280;12205;50.600;4.608;2023-03-15T01:54:22;99594.53;;;4.40
23992;BMP280;12205;50.600;4.608;2023-03-15T01:56:56;99599.06;;;4.40
23992;BMP280;12205;50.600;4.608;2023-03-15T01:59:28;99603.44;;;4.36
23992;BMP280;12205;50.600;4.608;2023-03-15T02:01:58;99591.59;;;4.42
23992;BMP280;12205;50.600;4.608;2023-03-15T02:04:30;99590.69;;;4.38
23992;BMP280;12205;50.600;4.608;2023-03-15T02:07:00;99598.84;;;4.45
23992;BMP280;12205;50.600;4.608;2023-03-15T02:09:34;99606.13;;;4.48
23992;BMP280;12205;50.600;4.608;2023-03-15T02:12:06;99593.16;;;4.55
23992;BMP280;12205;50.600;4.608;2023-03-15T02:14:34;99592.97;;;4.60
23992;BMP280;12205;50.600;4.608;2023-03-15T02:17:02;99601.34;;;4.62
23992;BMP280;12205;50.600;4.608;2023-03-15T02:19:37;99611.38;;;4.69
23992;BMP280;12205;50.600;4.608;2023-03-15T02:22:19;99602.50;;;4.74
23992;BMP280;12205;50.600;4.608;2023-03-15T02:24:54;99605.03;;;4.82
23992;BMP280;12205;50.600;4.608;2023-03-15T02:27:27;99604.50;;;4.89
23992;BMP280;12205;50.600;4.608;2023-03-15T02:29:56;99606.94;;;4.94
23992;BMP280;12205;50.600;4.608;2023-03-15T02:32:23;99610.81;;;4.97
23992;BMP280;12205;50.600;4.608;2023-03-15T02:34:50;99624.50;;;4.99
23992;BMP280;12205;50.600;4.608;2023-03-15T02:37:17;99635.22;;;5.02
23992;BMP280;12205;50.600;4.608;2023-03-15T02:39:45;99636.19;;;4.98
23992;BMP280;12205;50.600;4.608;2023-03-15T02:42:12;99635.28;;;4.94
23992;BMP280;12205;50.600;4.608;2023-03-15T02:44:44;99638.06;;;4.97
23992;BMP280;12205;50.600;4.608;2023-03-15T02:47:15;99626.69;;;4.97
23992;BMP280;12205;50.600;4.608;2023-03-15T02:49:46;99628.34;;;5.01
23992;BMP280;12205;50.600;4.608;2023-03-15T02:52:15;99608.63;;;4.99
23992;BMP280;12205;50.600;4.608;2023-03-15T02:54:42;99612.69;;;4.96
23992;BMP280;12205;50.600;4.608;2023-03-15T02:57:09;99609.13;;;4.92
23992;BMP280;12205;50.600;4.608;2023-03-15T02:59:36;99608.25;;;4.88
23992;BMP280;12205;50.600;4.608;2023-03-15T03:02:05;99615.28;;;4.84
23992;BMP280;12205;50.600;4.608;2023-03-15T03:04:33;99590.16;;;4.78
23992;BMP280;12205;50.600;4.608;2023-03-15T03:07:00;99586.09;;;4.80
23992;BMP280;12205;50.600;4.608;2023-03-15T03:09:36;99579.50;;;4.65
23992;BMP280;12205;50.600;4.608;2023-03-15T03:12:04;99577.75;;;4.70
23992;BMP280;12205;50.600;4.608;2023-03-15T03:14:32;99570.59;;;4.70
23992;BMP280;12205;50.600;4.608;2023-03-15T03:16:59;99561.66;;;4.75
23992;BMP280;12205;50.600;4.608;2023-03-15T03:19:28;99569.31;;;4.76
23992;BMP280;12205;50.600;4.608;2023-03-15T03:21:55;99573.81;;;4.76
23992;BMP280;12205;50.600;4.608;2023-03-15T03:24:22;99588.59;;;4.77
23992;BMP280;12205;50.600;4.608;2023-03-15T03:26:52;99601.38;;;4.75
23992;BMP280;12205;50.600;4.608;2023-03-15T03:29:22;99629.16;;;4.68
23992;BMP280;12205;50.600;4.608;2023-03-15T03:31:52;99637.75;;;4.65
23992;BMP280;12205;50.600;4.608;2023-03-15T03:34:20;99624.94;;;4.67
23992;BMP280;12205;50.600;4.608;2023-03-15T03:36:49;99609.06;;;4.67
23992;BMP280;12205;50.600;4.608;2023-03-15T03:39:23;99597.56;;;4.63
23992;BMP280;12205;50.600;4.608;2023-03-15T03:41:50;99601.22;;;4.59
23992;BMP280;12205;50.600;4.608;2023-03-15T03:44:17;99580.81;;;4.59
23992;BMP280;12205;50.600;4.608;2023-03-15T03:46:45;99568.13;;;4.65
23992;BMP280;12205;50.600;4.608;2023-03-15T03:49:13;99564.72;;;4.64
23992;BMP280;12205;50.600;4.608;2023-03-15T03:51:40;99566.50;;;4.60
23992;BMP280;12205;50.600;4.608;2023-03-15T03:54:08;99564.94;;;4.59
23992;BMP280;12205;50.600;4.608;2023-03-15T03:56:36;99574.63;;;4.55
23992;BMP280;12205;50.600;4.608;2023-03-15T03:59:04;99571.06;;;4.51
23992;BMP280;12205;50.600;4.608;2023-03-15T04:01:43;99582.88;;;4.54
23992;BMP280;12205;50.600;4.608;2023-03-15T04:04:11;99583.41;;;4.47
23992;BMP280;12205;50.600;4.608;2023-03-15T04:06:39;99581.88;;;4.46
23992;BMP280;12205;50.600;4.608;2023-03-15T04:09:11;99575.47;;;4.47
23992;BMP280;12205;50.600;4.608;2023-03-15T04:11:42;99575.94;;;4.49
23992;BMP280;12205;50.600;4.608;2023-03-15T04:14:11;99581.53;;;4.47
23992;BMP280;12205;50.600;4.608;2023-03-15T04:16:39;99575.03;;;4.45
23992;BMP280;12205;50.600;4.608;2023-03-15T04:19:08;99579.13;;;4.42
23992;BMP280;12205;50.600;4.608;2023-03-15T04:21:37;99582.31;;;4.48
23992;BMP280;12205;50.600;4.608;2023-03-15T04:24:29;99581.22;;;4.49
23992;BMP280;12205;50.600;4.608;2023-03-15T04:27:16;99580.56;;;4.52
23992;BMP280;12205;50.600;4.608;2023-03-15T04:30:04;99583.22;;;4.52
23992;BMP280;12205;50.600;4.608;2023-03-15T04:32:59;99579.16;;;4.55
23992;BMP280;12205;50.600;4.608;2023-03-15T04:35:48;99593.63;;;4.57
23992;BMP280;12205;50.600;4.608;2023-03-15T04:38:35;99592.97;;;4.60
23992;BMP280;12205;50.600;4.608;2023-03-15T04:41:33;99585.47;;;4.62
23992;BMP280;12205;50.600;4.608;2023-03-15T04:44:05;99586.31;;;4.66
23992;BMP280;12205;50.600;4.608;2023-03-15T04:46:55;99592.53;;;4.71
23992;BMP280;12205;50.600;4.608;2023-03-15T04:49:40;99603.91;;;4.71
23992;BMP280;12205;50.600;4.608;2023-03-15T05:02:32;99631.75;;;4.56
23992;BMP280;12205;50.600;4.608;2023-03-15T05:08:16;99650.28;;;4.56
23992;BMP280;12205;50.600;4.608;2023-03-15T05:17:12;99664.47;;;4.73
23992;BMP280;12205;50.600;4.608;2023-03-15T05:19:51;99661.81;;;4.73
23992;BMP280;12205;50.600;4.608;2023-03-15T05:22:34;99678.13;;;4.75
23992;BMP280;12205;50.600;4.608;2023-03-15T05:25:20;99673.50;;;4.72
23992;BMP280;12205;50.600;4.608;2023-03-15T05:28:34;99694.00;;;4.75
23992;BMP280;12205;50.600;4.608;2023-03-15T05:31:09;99696.38;;;4.76
23992;BMP280;12205;50.600;4.608;2023-03-15T05:33:56;99710.53;;;4.72
23992;BMP280;12205;50.600;4.608;2023-03-15T05:36:31;99709.00;;;4.71
23992;BMP280;12205;50.600;4.608;2023-03-15T05:39:26;99709.63;;;4.67
23992;BMP280;12205;50.600;4.608;2023-03-15T05:42:13;99718.66;;;4.66
23992;BMP280;12205;50.600;4.608;2023-03-15T05:44:57;99715.56;;;4.64
23992;BMP280;12205;50.600;4.608;2023-03-15T05:47:42;99725.09;;;4.65
23992;BMP280;12205;50.600;4.608;2023-03-15T05:50:18;99730.56;;;4.60
23992;BMP280;12205;50.600;4.608;2023-03-15T05:52:55;99737.44;;;4.61
23992;BMP280;12205;50.600;4.608;2023-03-15T05:55:43;99734.31;;;4.59
23992;BMP280;12205;50.600;4.608;2023-03-15T05:58:33;99740.06;;;4.61
23992;BMP280;12205;50.600;4.608;2023-03-15T06:01:01;99738.97;;;4.62
23992;BMP280;12205;50.600;4.608;2023-03-15T06:03:48;99742.38;;;4.63
23992;BMP280;12205;50.600;4.608;2023-03-15T06:06:20;99743.38;;;4.58
23992;BMP280;12205;50.600;4.608;2023-03-15T06:08:48;99747.09;;;4.57
23992;BMP280;12205;50.600;4.608;2023-03-15T06:11:15;99761.41;;;4.56
23992;BMP280;12205;50.600;4.608;2023-03-15T06:13:42;99771.56;;;4.54
23992;BMP280;12205;50.600;4.608;2023-03-15T06:16:16;99769.53;;;4.51
23992;BMP280;12205;50.600;4.608;2023-03-15T06:18:46;99759.34;;;4.41
23992;BMP280;12205;50.600;4.608;2023-03-15T06:21:13;99781.41;;;4.45
23992;BMP280;12205;50.600;4.608;2023-03-15T06:23:40;99777.19;;;4.44
23992;BMP280;12205;50.600;4.608;2023-03-15T06:26:10;99783.94;;;4.41
23992;BMP280;12205;50.600;4.608;2023-03-15T06:28:39;99784.72;;;4.42
23992;BMP280;12205;50.600;4.608;2023-03-15T06:31:06;99777.41;;;4.39
23992;BMP280;12205;50.600;4.608;2023-03-15T06:33:38;99778.50;;;4.38
23992;BMP280;12205;50.600;4.608;2023-03-15T06:36:09;99788.94;;;4.34
23992;BMP280;12205;50.600;4.608;2023-03-15T06:38:38;99788.03;;;4.30
23992;BMP280;12205;50.600;4.608;2023-03-15T06:41:06;99784.63;;;4.29
23992;BMP280;12205;50.600;4.608;2023-03-15T06:43:36;99785.06;;;4.31
23992;BMP280;12205;50.600;4.608;2023-03-15T06:46:05;99783.06;;;4.28
23992;BMP280;12205;50.600;4.608;2023-03-15T06:48:32;99770.28;;;4.30
23992;BMP280;12205;50.600;4.608;2023-03-15T06:50:59;99777.13;;;4.31
23992;BMP280;12205;50.600;4.608;2023-03-15T06:53:26;99773.38;;;4.32
23992;BMP280;12205;50.600;4.608;2023-03-15T06:55:53;99774.94;;;4.33
23992;BMP280;12205;50.600;4.608;2023-03-15T06:58:20;99778.69;;;4.32
23992;BMP280;12205;50.600;4.608;2023-03-15T07:00:48;99768.88;;;4.33
23992;BMP280;12205;50.600;4.608;2023-03-15T07:03:15;99764.03;;;4.35
23992;BMP280;12205;50.600;4.608;2023-03-15T07:05:43;99772.09;;;4.39
23992;BMP280;12205;50.600;4.608;2023-03-15T07:08:11;99770.56;;;4.38
23992;BMP280;12205;50.600;4.608;2023-03-15T07:10:38;99764.31;;;4.42
23992;BMP280;12205;50.600;4.608;2023-03-15T07:13:05;99765.09;;;4.43
23992;BMP280;12205;50.600;4.608;2023-03-15T07:15:31;99776.13;;;4.45
23992;BMP280;12205;50.600;4.608;2023-03-15T07:18:00;99775.66;;;4.43
23992;BMP280;12205;50.600;4.608;2023-03-15T07:20:27;99777.69;;;4.46
23992;BMP280;12205;50.600;4.608;2023-03-15T07:22:54;99772.50;;;4.49
23992;BMP280;12205;50.600;4.608;2023-03-15T07:25:22;99765.81;;;4.52
23992;BMP280;12205;50.600;4.608;2023-03-15T07:27:51;99776.22;;;4.57
23992;BMP280;12205;50.600;4.608;2023-03-15T07:30:19;99772.94;;;4.60
23992;BMP280;12205;50.600;4.608;2023-03-15T07:32:46;99771.38;;;4.59
23992;BMP280;12205;50.600;4.608;2023-03-15T07:35:15;99784.28;;;4.61
23992;BMP280;12205;50.600;4.608;2023-03-15T07:37:42;99787.50;;;4.66
23992;BMP280;12205;50.600;4.608;2023-03-15T07:40:10;99788.88;;;4.73
23992;BMP280;12205;50.600;4.608;2023-03-15T07:42:38;99787.78;;;4.74
23992;BMP280;12205;50.600;4.608;2023-03-15T07:45:08;99811.41;;;4.79
23992;BMP280;12205;50.600;4.608;2023-03-15T07:47:35;99818.25;;;4.80
23992;BMP280;12205;50.600;4.608;2023-03-15T07:50:03;99827.41;;;4.82
23992;BMP280;12205;50.600;4.608;2023-03-15T07:52:31;99837.03;;;4.87
23992;BMP280;12205;50.600;4.608;2023-03-15T07:54:58;99845.72;;;4.96
23992;BMP280;12205;50.600;4.608;2023-03-15T07:57:25;99849.25;;;5.00
23992;BMP280;12205;50.600;4.608;2023-03-15T07:59:52;99855.66;;;4.99
23992;BMP280;12205;50.600;4.608;2023-03-15T08:02:19;99876.50;;;5.01
23992;BMP280;12205;50.600;4.608;2023-03-15T08:04:46;99891.00;;;5.03
23992;BMP280;12205;50.600;4.608;2023-03-15T08:07:15;99900.50;;;5.04
23992;BMP280;12205;50.600;4.608;2023-03-15T08:09:43;99919.50;;;5.07
23992;BMP280;12205;50.600;4.608;2023-03-15T08:12:10;99914.94;;;5.16
23992;BMP280;12205;50.600;4.608;2023-03-15T08:14:37;99925.47;;;5.25
23992;BMP280;12205;50.600;4.608;2023-03-15T08:17:04;99953.19;;;5.27
23992;BMP280;12205;50.600;4.608;2023-03-15T08:19:31;99961.66;;;5.20
23992;BMP280;12205;50.600;4.608;2023-03-15T08:21:58;99992.75;;;5.32
23992;BMP280;12205;50.600;4.608;2023-03-15T08:24:25;100000.66;;;5.41
23992;BMP280;12205;50.600;4.608;2023-03-15T08:26:54;100034.16;;;5.46
23992;BMP280;12205;50.600;4.608;2023-03-15T08:29:21;100042.16;;;5.58
23992;BMP280;12205;50.600;4.608;2023-03-15T08:31:47;100041.16;;;5.71
23992;BMP280;12205;50.600;4.608;2023-03-15T08:34:14;100042.66;;;5.81
23992;BMP280;12205;50.600;4.608;2023-03-15T08:36:41;100093.66;;;5.78
23992;BMP280;12205;50.600;4.608;2023-03-15T08:39:08;100124.81;;;5.90
23992;BMP280;12205;50.600;4.608;2023-03-15T08:41:36;100140.16;;;6.05
23992;BMP280;12205;50.600;4.608;2023-03-15T08:44:04;100173.78;;;6.14
23992;BMP280;12205;50.600;4.608;2023-03-15T08:46:31;100224.81;;;6.19
23992;BMP280;12205;50.600;4.608;2023-03-15T08:48:58;100224.03;;;6.40
23992;BMP280;12205;50.600;4.608;2023-03-15T08:51:25;100222.63;;;6.42
23992;BMP280;12205;50.600;4.608;2023-03-15T08:53:53;100214.72;;;6.55
23992;BMP280;12205;50.600;4.608;2023-03-15T08:56:20;100215.69;;;6.71
23992;BMP280;12205;50.600;4.608;2023-03-15T08:58:47;100231.03;;;6.87
23992;BMP280;12205;50.600;4.608;2023-03-15T09:01:16;100265.63;;;6.99
23992;BMP280;12205;50.600;4.608;2023-03-15T09:03:43;100343.78;;;6.98
23992;BMP280;12205;50.600;4.608;2023-03-15T09:06:10;100350.91;;;7.06
23992;BMP280;12205;50.600;4.608;2023-03-15T09:08:37;100335.75;;;7.07
23992;BMP280;12205;50.600;4.608;2023-03-15T09:11:04;100315.19;;;7.16
23992;BMP280;12205;50.600;4.608;2023-03-15T09:13:31;100344.00;;;7.14
23992;BMP280;12205;50.600;4.608;2023-03-15T09:15:58;100377.63;;;7.10
23992;BMP280;12205;50.600;4.608;2023-03-15T09:18:26;100389.31;;;7.17
23992;BMP280;12205;50.600;4.608;2023-03-15T09:20:53;100385.78;;;7.26
23992;BMP280;12205;50.600;4.608;2023-03-15T09:23:20;100374.91;;;7.40
23992;BMP280;12205;50.600;4.608;2023-03-15T09:25:47;100373.25;;;7.47
23992;BMP280;12205;50.600;4.608;2023-03-15T09:28:14;100401.84;;;7.50
23992;BMP280;12205;50.600;4.608;2023-03-15T09:30:41;100417.94;;;7.54
23992;BMP280;12205;50.600;4.608;2023-03-15T09:33:08;100421.59;;;7.49
23992;BMP280;12205;50.600;4.608;2023-03-15T09:35:40;100446.84;;;7.56
23992;BMP280;12205;50.600;4.608;2023-03-15T09:38:08;100449.34;;;7.61
23992;BMP280;12205;50.600;4.608;2023-03-15T09:40:39;100420.13;;;7.73
23992;BMP280;12205;50.600;4.608;2023-03-15T09:43:27;100415.03;;;7.80
23992;BMP280;12205;50.600;4.608;2023-03-15T09:46:05;100427.44;;;7.76
23992;BMP280;12205;50.600;4.608;2023-03-15T09:48:39;100427.63;;;7.71
23992;BMP280;12205;50.600;4.608;2023-03-15T09:51:13;100422.31;;;7.71
23992;BMP280;12205;50.600;4.608;2023-03-15T09:53:46;100403.94;;;7.78
23992;BMP280;12205;50.600;4.608;2023-03-15T09:56:20;100407.50;;;7.82
23992;BMP280;12205;50.600;4.608;2023-03-15T09:58:49;100440.06;;;7.79
23992;BMP280;12205;50.600;4.608;2023-03-15T10:01:21;100406.72;;;7.82
23992;BMP280;12205;50.600;4.608;2023-03-15T10:03:51;100407.06;;;7.93
23992;BMP280;12205;50.600;4.608;2023-03-15T10:06:22;100439.56;;;7.86
23992;BMP280;12205;50.600;4.608;2023-03-15T10:08:55;100431.25;;;7.87
23992;BMP280;12205;50.600;4.608;2023-03-15T10:11:26;100435.91;;;7.90
23992;BMP280;12205;50.600;4.608;2023-03-15T10:14:08;100439.91;;;7.97
23992;BMP280;12205;50.600;4.608;2023-03-15T10:16:39;100437.81;;;8.02
23992;BMP280;12205;50.600;4.608;2023-03-15T10:19:17;100443.13;;;8.02
23992;BMP280;12205;50.600;4.608;2023-03-15T10:21:53;100461.88;;;7.94
23992;BMP280;12205;50.600;4.608;2023-03-15T10:24:24;100477.03;;;7.93
23992;BMP280;12205;50.600;4.608;2023-03-15T10:26:58;100474.97;;;7.99
23992;BMP280;12205;50.600;4.608;2023-03-15T10:29:25;100478.22;;;8.04
23992;BMP280;12205;50.600;4.608;2023-03-15T10:31:53;100487.19;;;8.00
23992;BMP280;12205;50.600;4.608;2023-03-15T10:34:21;100485.88;;;8.06
23992;BMP280;12205;50.600;4.608;2023-03-15T10:36:52;100486.09;;;8.13
23992;BMP280;12205;50.600;4.608;2023-03-15T10:39:20;100469.28;;;8.21
23992;BMP280;12205;50.600;4.608;2023-03-15T10:41:48;100475.28;;;8.31
23992;BMP280;12205;50.600;4.608;2023-03-15T10:44:18;100475.06;;;8.48
23992;BMP280;12205;50.600;4.608;2023-03-15T10:47:00;100479.50;;;8.69
23992;BMP280;12205;50.600;4.608;2023-03-15T10:49:35;100467.94;;;8.77
23992;BMP280;12205;50.600;4.608;2023-03-15T10:52:05;100489.72;;;9.04
23992;BMP280;12205;50.600;4.608;2023-03-15T10:54:32;100499.22;;;9.17
23992;BMP280;12205;50.600;4.608;2023-03-15T10:57:02;100502.09;;;9.24
23992;BMP280;12205;50.600;4.608;2023-03-15T10:59:31;100498.91;;;9.06
23992;BMP280;12205;50.600;4.608;2023-03-15T11:02:18;100508.78;;;9.06
23992;BMP280;12205;50.600;4.608;2023-03-15T11:04:49;100505.78;;;9.07
23992;BMP280;12205;50.600;4.608;2023-03-15T11:07:18;100511.06;;;9.04
23992;BMP280;12205;50.600;4.608;2023-03-15T11:09:51;100513.47;;;9.09
23992;BMP280;12205;50.600;4.608;2023-03-15T11:12:23;100522.69;;;9.11
23992;BMP280;12205;50.600;4.608;2023-03-15T11:14:55;100527.69;;;9.01
23992;BMP280;12205;50.600;4.608;2023-03-15T11:17:24;100529.25;;;9.02
23992;BMP280;12205;50.600;4.608;2023-03-15T11:19:53;100525.69;;;9.10
23992;BMP280;12205;50.600;4.608;2023-03-15T11:22:23;100527.06;;;9.04
23992;BMP280;12205;50.600;4.608;2023-03-15T11:24:51;100527.59;;;9.09
23992;BMP280;12205;50.600;4.608;2023-03-15T11:27:21;100530.59;;;9.20
23992;BMP280;12205;50.600;4.608;2023-03-15T11:29:50;100541.44;;;9.27
23992;BMP280;12205;50.600;4.608;2023-03-15T11:32:20;100534.06;;;9.36
23992;BMP280;12205;50.600;4.608;2023-03-15T11:34:53;100523.06;;;9.50
23992;BMP280;12205;50.600;4.608;2023-03-15T11:37:27;100528.00;;;9.64
23992;BMP280;12205;50.600;4.608;2023-03-15T11:39:57;100529.94;;;9.80
23992;BMP280;12205;50.600;4.608;2023-03-15T11:42:29;100535.84;;;10.01
23992;BMP280;12205;50.600;4.608;2023-03-15T11:45:02;100533.38;;;10.08
23992;BMP280;12205;50.600;4.608;2023-03-15T11:47:41;100537.78;;;10.17
23992;BMP280;12205;50.600;4.608;2023-03-15T11:50:14;100533.03;;;10.26
23992;BMP280;12205;50.600;4.608;2023-03-15T11:52:47;100532.28;;;10.41
23992;BMP280;12205;50.600;4.608;2023-03-15T11:55:16;100534.88;;;10.54
23992;BMP280;12205;50.600;4.608;2023-03-15T11:57:44;100529.97;;;10.56
23992;BMP280;12205;50.600;4.608;2023-03-15T12:00:24;100530.91;;;10.63
23992;BMP280;12205;50.600;4.608;2023-03-15T12:02:54;100530.19;;;10.82
23992;BMP280;12205;50.600;4.608;2023-03-15T12:05:43;100523.75;;;11.03
23992;BMP280;12205;50.600;4.608;2023-03-15T12:08:22;100525.31;;;11.04
23992;BMP280;12205;50.600;4.608;2023-03-15T12:11:09;100519.25;;;11.07
23992;BMP280;12205;50.600;4.608;2023-03-15T12:13:36;100524.78;;;11.14
23992;BMP280;12205;50.600;4.608;2023-03-15T12:16:05;100523.75;;;11.03
23992;BMP280;12205;50.600;4.608;2023-03-15T12:18:40;100532.50;;;10.84
23992;BMP280;12205;50.600;4.608;2023-03-15T12:21:12;100521.97;;;10.75
23992;BMP280;12205;50.600;4.608;2023-03-15T12:23:44;100513.28;;;10.78
23992;BMP280;12205;50.600;4.608;2023-03-15T12:26:22;100521.19;;;10.91
23992;BMP280;12205;50.600;4.608;2023-03-15T12:28:51;100519.09;;;11.00
23992;BMP280;12205;50.600;4.608;2023-03-15T12:31:19;100519.53;;;11.02
23992;BMP280;12205;50.600;4.608;2023-03-15T12:33:48;100490.25;;;11.09
23992;BMP280;12205;50.600;4.608;2023-03-15T12:36:28;100508.09;;;11.41
23992;BMP280;12205;50.600;4.608;2023-03-15T12:39:01;100502.91;;;11.71
23992;BMP280;12205;50.600;4.608;2023-03-15T12:41:34;100500.03;;;12.03
23992;BMP280;12205;50.600;4.608;2023-03-15T12:44:39;100498.75;;;12.43
23992;BMP280;12205;50.600;4.608;2023-03-15T12:47:07;100500.44;;;13.15
23992;BMP280;12205;50.600;4.608;2023-03-15T12:49:37;100501.97;;;13.91
23992;BMP280;12205;50.600;4.608;2023-03-15T12:52:24;100489.00;;;14.63
23992;BMP280;12205;50.600;4.608;2023-03-15T12:54:59;100497.28;;;15.17
23992;BMP280;12205;50.600;4.608;2023-03-15T12:57:28;100494.31;;;15.76
23992;BMP280;12205;50.600;4.608;2023-03-15T12:59:57;100488.47;;;16.13
23992;BMP280;12205;50.600;4.608;2023-03-15T13:02:30;100492.56;;;16.65
23992;BMP280;12205;50.600;4.608;2023-03-15T13:05:11;100493.31;;;16.69
23992;BMP280;12205;50.600;4.608;2023-03-15T13:07:51;100494.81;;;16.77
23992;BMP280;12205;50.600;4.608;2023-03-15T13:10:39;100491.81;;;16.68
23992;BMP280;12205;50.600;4.608;2023-03-15T13:13:27;100488.75;;;16.55
23992;BMP280;12205;50.600;4.608;2023-03-15T13:16:11;100493.47;;;16.19
23992;BMP280;12205;50.600;4.608;2023-03-15T13:18:49;100495.44;;;15.79
23992;BMP280;12205;50.600;4.608;2023-03-15T13:21:25;100500.44;;;15.44
23992;BMP280;12205;50.600;4.608;2023-03-15T13:23:57;100497.66;;;15.19
23992;BMP280;12205;50.600;4.608;2023-03-15T13:26:35;100497.19;;;14.88
23992;BMP280;12205;50.600;4.608;2023-03-15T13:29:11;100502.47;;;14.67
23992;BMP280;12205;50.600;4.608;2023-03-15T13:31:43;100502.63;;;14.99
23992;BMP280;12205;50.600;4.608;2023-03-15T13:34:12;100505.00;;;15.22
23992;BMP280;12205;50.600;4.608;2023-03-15T13:36:41;100503.88;;;15.45
23992;BMP280;12205;50.600;4.608;2023-03-15T13:39:15;100505.06;;;15.51
23992;BMP280;12205;50.600;4.608;2023-03-15T13:41:45;100505.81;;;15.77
23992;BMP280;12205;50.600;4.608;2023-03-15T13:44:17;100503.53;;;15.71
23992;BMP280;12205;50.600;4.608;2023-03-15T13:46:45;100498.13;;;15.57
23992;BMP280;12205;50.600;4.608;2023-03-15T13:49:13;100495.06;;;15.59
23992;BMP280;12205;50.600;4.608;2023-03-15T13:51:40;100502.75;;;15.53
23992;BMP280;12205;50.600;4.608;2023-03-15T13:54:15;100513.56;;;15.67
23992;BMP280;12205;50.600;4.608;2023-03-15T13:56:53;100499.66;;;16.16
23992;BMP280;12205;50.600;4.608;2023-03-15T13:59:22;100504.16;;;16.55
23992;BMP280;12205;50.600;4.608;2023-03-15T14:01:51;100513.31;;;16.86
23992;BMP280;12205;50.600;4.608;2023-03-15T14:04:20;100513.34;;;16.75
23992;BMP280;12205;50.600;4.608;2023-03-15T14:06:48;100506.44;;;16.67
23992;BMP280;12205;50.600;4.608;2023-03-15T14:09:21;100511.56;;;16.22
23992;BMP280;12205;50.600;4.608;2023-03-15T14:12:01;100512.75;;;16.10
23992;BMP280;12205;50.600;4.608;2023-03-15T14:14:30;100514.31;;;15.86
23992;BMP280;12205;50.600;4.608;2023-03-15T14:16:58;100518.53;;;15.62
23992;BMP280;12205;50.600;4.608;2023-03-15T14:19:27;100524.69;;;15.51
23992;BMP280;12205;50.600;4.608;2023-03-15T14:21:55;100526.66;;;15.87
23992;BMP280;12205;50.600;4.608;2023-03-15T14:24:26;100525.81;;;16.40
23992;BMP280;12205;50.600;4.608;2023-03-15T14:26:57;100518.69;;;16.89
23992;BMP280;12205;50.600;4.608;2023-03-15T14:29:29;100515.41;;;17.23
23992;BMP280;12205;50.600;4.608;2023-03-15T14:31:59;100514.44;;;17.55
23992;BMP280;12205;50.600;4.608;2023-03-15T14:34:32;100512.66;;;17.83
23992;BMP280;12205;50.600;4.608;2023-03-15T14:36:59;100517.47;;;17.61
23992;BMP280;12205;50.600;4.608;2023-03-15T14:39:35;100524.16;;;17.45
23992;BMP280;12205;50.600;4.608;2023-03-15T14:42:04;100518.75;;;17.42
23992;BMP280;12205;50.600;4.608;2023-03-15T14:44:32;100520.56;;;17.59
23992;BMP280;12205;50.600;4.608;2023-03-15T14:47:00;100514.56;;;17.41
23992;BMP280;12205;50.600;4.608;2023-03-15T14:49:28;100510.47;;;17.11
23992;BMP280;12205;50.600;4.608;2023-03-15T14:51:58;100510.94;;;16.99
23992;BMP280;12205;50.600;4.608;2023-03-15T14:54:27;100498.69;;;16.76
23992;BMP280;12205;50.600;4.608;2023-03-15T14:56:54;100502.53;;;16.75